createdAt,value
2023-02-04T00:00:33.726Z,1015.19
2023-02-04T00:01:33.603Z,1015.18
2023-02-04T00:02:33.624Z,1015.16
2023-02-04T00:03:33.597Z,1015.17
2023-02-04T00:04:33.558Z,1015.27
2023-02-04T00:05:33.610Z,1015.21
2023-02-04T00:06:33.531Z,1015.23
2023-02-04T00:07:33.577Z,1015.19
2023-02-04T00:08:33.515Z,1015.20
2023-02-04T00:09:33.510Z,1015.20
2023-02-04T00:10:33.887Z,1015.21
2023-02-04T00:11:33.481Z,1015.19
2023-02-04T00:12:33.542Z,1015.16
2023-02-04T00:13:33.433Z,1015.24
2023-02-04T00:14:33.441Z,1015.25
2023-02-04T00:15:33.421Z,1015.28
2023-02-04T00:16:33.404Z,1015.29
2023-02-04T00:17:33.443Z,1015.23
2023-02-04T00:18:33.380Z,1015.22
2023-02-04T00:19:33.371Z,1015.23
2023-02-04T00:20:33.469Z,1015.27
2023-02-04T00:21:33.340Z,1015.33
2023-02-04T00:22:33.345Z,1015.31
2023-02-04T00:23:33.335Z,1015.29
2023-02-04T00:24:33.412Z,1015.24
2023-02-04T00:25:33.289Z,1015.20
2023-02-04T00:26:33.272Z,1015.26
2023-02-04T00:27:33.303Z,1015.23
2023-02-04T00:28:33.245Z,1015.28
2023-02-04T00:29:33.252Z,1015.25
2023-02-04T00:30:33.423Z,1015.30
2023-02-04T00:31:33.332Z,1015.32
2023-02-04T00:32:33.221Z,1015.30
2023-02-04T00:33:33.213Z,1015.23
2023-02-04T00:34:33.165Z,1015.37
2023-02-04T00:35:33.175Z,1015.32
2023-02-04T00:36:33.162Z,1015.31
2023-02-04T00:37:33.173Z,1015.34
2023-02-04T00:38:33.116Z,1015.34
2023-02-04T00:39:33.122Z,1015.30
2023-02-04T00:40:33.311Z,1015.28
2023-02-04T00:41:33.081Z,1015.31
2023-02-04T00:42:33.099Z,1015.32
2023-02-04T00:43:33.094Z,1015.29
2023-02-04T00:44:33.047Z,1015.32
2023-02-04T00:45:33.054Z,1015.34
2023-02-04T00:46:33.053Z,1015.32
2023-02-04T00:47:33.023Z,1015.40
2023-02-04T00:48:33.004Z,1015.40
2023-02-04T00:49:32.983Z,1015.46
2023-02-04T00:50:33.308Z,1015.41
2023-02-04T00:51:32.965Z,1015.46
2023-02-04T00:52:32.965Z,1015.52
2023-02-04T00:53:32.933Z,1015.52
2023-02-04T00:54:32.943Z,1015.52
2023-02-04T00:55:32.924Z,1015.52
2023-02-04T00:56:32.894Z,1015.54
2023-02-04T00:57:32.910Z,1015.52
2023-02-04T00:58:32.852Z,1015.58
2023-02-04T00:59:32.855Z,1015.55
2023-02-04T01:00:33.201Z,1015.56
2023-02-04T01:01:32.834Z,1015.54
2023-02-04T01:02:32.854Z,1015.54
2023-02-04T01:03:32.805Z,1015.56
2023-02-04T01:04:32.808Z,1015.48
2023-02-04T01:05:32.792Z,1015.52
2023-02-04T01:06:32.766Z,1015.52
2023-02-04T01:07:32.865Z,1015.55
2023-02-04T01:08:32.747Z,1015.57
2023-02-04T01:09:32.727Z,1015.59
2023-02-04T01:10:33.062Z,1015.59
2023-02-04T01:11:32.717Z,1015.58
2023-02-04T01:12:32.716Z,1015.63
2023-02-04T01:13:32.697Z,1015.66
2023-02-04T01:14:32.672Z,1015.67
2023-02-04T01:15:32.659Z,1015.73
2023-02-04T01:16:32.939Z,1015.69
2023-02-04T01:17:33.896Z,1015.67
2023-02-04T01:18:33.200Z,1015.68
2023-02-04T01:19:33.509Z,1015.70
2023-02-04T01:20:32.909Z,1015.73
2023-02-04T01:21:32.582Z,1015.74
2023-02-04T01:22:32.597Z,1015.76
2023-02-04T01:23:32.550Z,1015.75
2023-02-04T01:24:32.540Z,1015.76
2023-02-04T01:25:32.530Z,1015.78
2023-02-04T01:26:32.513Z,1015.79
2023-02-04T01:27:32.525Z,1015.88
2023-02-04T01:28:32.480Z,1015.92
2023-02-04T01:29:32.478Z,1015.97
2023-02-04T01:30:32.783Z,1015.99
2023-02-04T01:31:32.479Z,1015.95
2023-02-04T01:32:32.452Z,1015.95
2023-02-04T01:33:32.430Z,1015.92
2023-02-04T01:34:32.421Z,1015.93
2023-02-04T01:35:32.411Z,1015.96
2023-02-04T01:36:32.372Z,1015.97
2023-02-04T01:37:32.401Z,1015.89
2023-02-04T01:38:32.362Z,1015.85
2023-02-04T01:39:32.355Z,1015.86
2023-02-04T01:40:32.724Z,1015.90
2023-02-04T01:41:32.333Z,1015.90
2023-02-04T01:42:32.319Z,1015.94
2023-02-04T01:43:32.292Z,1015.92
2023-02-04T01:44:32.283Z,1015.92
2023-02-04T01:45:32.278Z,1015.93
2023-02-04T01:46:32.268Z,1015.94
2023-02-04T01:47:32.281Z,1015.98
2023-02-04T01:48:32.228Z,1015.91
2023-02-04T01:49:32.229Z,1015.98
2023-02-04T01:50:32.627Z,1015.97
2023-02-04T01:51:32.202Z,1015.89
2023-02-04T01:52:32.198Z,1015.93
2023-02-04T01:53:32.168Z,1015.97
2023-02-04T01:54:32.139Z,1016.01
2023-02-04T01:55:32.156Z,1015.99
2023-02-04T01:56:32.172Z,1016.07
2023-02-04T01:57:32.134Z,1016.08
2023-02-04T01:58:32.152Z,1016.16
2023-02-04T01:59:32.090Z,1016.16
2023-02-04T02:00:32.537Z,1016.17
2023-02-04T02:01:32.048Z,1016.25
2023-02-04T02:02:32.147Z,1016.30
2023-02-04T02:03:32.043Z,1016.34
2023-02-04T02:04:32.035Z,1016.33
2023-02-04T02:05:32.025Z,1016.31
2023-02-04T02:06:32.038Z,1016.30
2023-02-04T02:07:32.022Z,1016.26
2023-02-04T02:08:31.990Z,1016.33
2023-02-04T02:09:31.979Z,1016.26
2023-02-04T02:10:32.211Z,1016.24
2023-02-04T02:11:31.930Z,1016.18
2023-02-04T02:12:31.944Z,1016.25
2023-02-04T02:13:31.916Z,1016.26
2023-02-04T02:14:31.900Z,1016.34
2023-02-04T02:15:31.883Z,1016.31
2023-02-04T02:16:31.905Z,1016.25
2023-02-04T02:17:31.869Z,1016.24
2023-02-04T02:18:31.843Z,1016.30
2023-02-04T02:19:31.833Z,1016.33
2023-02-04T02:20:32.205Z,1016.34
2023-02-04T02:21:31.812Z,1016.29
2023-02-04T02:22:31.824Z,1016.29
2023-02-04T02:23:31.779Z,1016.32
2023-02-04T02:24:31.778Z,1016.36
2023-02-04T02:25:31.767Z,1016.27
2023-02-04T02:26:31.781Z,1016.30
2023-02-04T02:27:31.750Z,1016.35
2023-02-04T02:28:31.729Z,1016.39
2023-02-04T02:29:31.707Z,1016.43
2023-02-04T02:30:32.094Z,1016.38
2023-02-04T02:31:31.790Z,1016.39
2023-02-04T02:32:31.727Z,1016.41
2023-02-04T02:33:31.653Z,1016.38
2023-02-04T02:34:31.663Z,1016.43
2023-02-04T02:35:31.638Z,1016.39
2023-02-04T02:36:31.618Z,1016.39
2023-02-04T02:37:31.639Z,1016.44
2023-02-04T02:38:31.609Z,1016.45
2023-02-04T02:39:31.680Z,1016.40
2023-02-04T02:40:31.991Z,1016.37
2023-02-04T02:41:31.569Z,1016.37
2023-02-04T02:42:31.560Z,1016.41
2023-02-04T02:43:31.573Z,1016.32
2023-02-04T02:44:31.527Z,1016.37
2023-02-04T02:45:31.496Z,1016.40
2023-02-04T02:46:31.496Z,1016.38
2023-02-04T02:47:31.489Z,1016.43
2023-02-04T02:48:31.459Z,1016.41
2023-02-04T02:49:31.451Z,1016.41
2023-02-04T02:50:31.897Z,1016.43
2023-02-04T02:51:31.425Z,1016.46
2023-02-04T02:52:31.446Z,1016.48
2023-02-04T02:53:31.386Z,1016.52
2023-02-04T02:54:31.406Z,1016.49
2023-02-04T02:55:31.365Z,1016.53
2023-02-04T02:56:31.392Z,1016.65
2023-02-04T02:57:31.354Z,1016.67
2023-02-04T02:58:31.344Z,1016.62
2023-02-04T02:59:31.333Z,1016.64
2023-02-04T03:00:31.698Z,1016.58
2023-02-04T03:01:31.369Z,1016.55
2023-02-04T03:02:31.391Z,1016.59
2023-02-04T03:03:31.275Z,1016.56
2023-02-04T03:04:31.252Z,1016.57
2023-02-04T03:05:31.226Z,1016.58
2023-02-04T03:06:31.213Z,1016.53
2023-02-04T03:07:31.200Z,1016.55
2023-02-04T03:08:31.213Z,1016.59
2023-02-04T03:09:31.212Z,1016.64
2023-02-04T03:10:31.575Z,1016.68
2023-02-04T03:11:31.162Z,1016.68
2023-02-04T03:12:31.137Z,1016.59
2023-02-04T03:13:31.155Z,1016.58
2023-02-04T03:14:31.119Z,1016.54
2023-02-04T03:15:31.139Z,1016.52
2023-02-04T03:16:31.091Z,1016.50
2023-02-04T03:17:31.070Z,1016.57
2023-02-04T03:18:31.072Z,1016.63
2023-02-04T03:19:31.083Z,1016.59
2023-02-04T03:20:31.340Z,1016.54
2023-02-04T03:21:31.047Z,1016.63
2023-02-04T03:22:31.044Z,1016.67
2023-02-04T03:23:31.017Z,1016.66
2023-02-04T03:24:30.994Z,1016.65
2023-02-04T03:25:30.983Z,1016.61
2023-02-04T03:26:30.978Z,1016.60
2023-02-04T03:27:30.965Z,1016.67
2023-02-04T03:28:30.975Z,1016.70
2023-02-04T03:29:30.946Z,1016.69
2023-02-04T03:30:31.246Z,1016.70
2023-02-04T03:31:31.070Z,1016.68
2023-02-04T03:32:30.867Z,1016.75
2023-02-04T03:33:30.893Z,1016.69
2023-02-04T03:34:31.210Z,1016.73
2023-02-04T03:35:30.847Z,1016.72
2023-02-04T03:36:30.827Z,1016.73
2023-02-04T03:37:30.829Z,1016.74
2023-02-04T03:38:30.819Z,1016.73
2023-02-04T03:39:30.798Z,1016.75
2023-02-04T03:40:31.107Z,1016.78
2023-02-04T03:41:30.786Z,1016.79
2023-02-04T03:42:30.758Z,1016.81
2023-02-04T03:43:32.993Z,1016.82
2023-02-04T03:44:30.720Z,1016.89
2023-02-04T03:45:40.706Z,1016.90
2023-02-04T03:46:31.794Z,1016.92
2023-02-04T03:47:30.688Z,1016.94
2023-02-04T03:48:30.698Z,1016.98
2023-02-04T03:49:30.667Z,1016.98
2023-02-04T03:50:31.016Z,1017.05
2023-02-04T03:51:30.636Z,1017.02
2023-02-04T03:52:30.628Z,1017.05
2023-02-04T03:53:30.637Z,1017.03
2023-02-04T03:54:30.579Z,1017.09
2023-02-04T03:55:30.579Z,1017.11
2023-02-04T03:56:30.568Z,1017.12
2023-02-04T03:57:30.563Z,1017.15
2023-02-04T03:58:30.569Z,1017.15
2023-02-04T03:59:30.530Z,1017.20
2023-02-04T04:00:30.850Z,1017.25
2023-02-04T04:01:30.543Z,1017.26
2023-02-04T04:02:30.503Z,1017.28
2023-02-04T04:03:30.490Z,1017.26
2023-02-04T04:04:30.461Z,1017.25
2023-02-04T04:05:30.474Z,1017.25
2023-02-04T04:06:30.470Z,1017.27
2023-02-04T04:07:30.431Z,1017.34
2023-02-04T04:08:30.434Z,1017.30
2023-02-04T04:09:30.411Z,1017.28
2023-02-04T04:10:30.850Z,1017.27
2023-02-04T04:11:30.397Z,1017.22
2023-02-04T04:12:30.359Z,1017.18
2023-02-04T04:13:30.366Z,1017.18
2023-02-04T04:14:30.344Z,1017.22
2023-02-04T04:15:30.329Z,1017.20
2023-02-04T04:16:30.471Z,1017.24
2023-02-04T04:17:30.307Z,1017.23
2023-02-04T04:18:30.310Z,1017.27
2023-02-04T04:19:30.308Z,1017.29
2023-02-04T04:20:30.840Z,1017.30
2023-02-04T04:21:30.255Z,1017.27
2023-02-04T04:22:30.242Z,1017.26
2023-02-04T04:23:30.239Z,1017.26
2023-02-04T04:24:30.209Z,1017.23
2023-02-04T04:25:30.199Z,1017.24
2023-02-04T04:26:30.175Z,1017.23
2023-02-04T04:27:30.169Z,1017.24
2023-02-04T04:28:30.177Z,1017.24
2023-02-04T04:29:30.148Z,1017.25
2023-02-04T04:30:30.547Z,1017.25
2023-02-04T04:31:30.328Z,1017.29
2023-02-04T04:32:30.100Z,1017.30
2023-02-04T04:33:30.096Z,1017.23
2023-02-04T04:34:30.065Z,1017.30
2023-02-04T04:35:30.076Z,1017.34
2023-02-04T04:36:30.056Z,1017.31
2023-02-04T04:37:30.044Z,1017.34
2023-02-04T04:38:30.048Z,1017.37
2023-02-04T04:39:30.038Z,1017.42
2023-02-04T04:40:31.109Z,1017.44
2023-02-04T04:41:31.402Z,1017.47
2023-02-04T04:42:29.973Z,1017.46
2023-02-04T04:43:29.975Z,1017.43
2023-02-04T04:44:29.960Z,1017.46
2023-02-04T04:45:30.651Z,1017.45
2023-02-04T04:46:29.926Z,1017.49
2023-02-04T04:47:29.904Z,1017.44
2023-02-04T04:48:29.910Z,1017.45
2023-02-04T04:49:30.028Z,1017.45
2023-02-04T04:50:30.257Z,1017.48
2023-02-04T04:51:29.854Z,1017.52
2023-02-04T04:52:29.852Z,1017.50
2023-02-04T04:53:29.843Z,1017.48
2023-02-04T04:54:29.808Z,1017.48
2023-02-04T04:55:29.810Z,1017.48
2023-02-04T04:56:29.780Z,1017.46
2023-02-04T04:57:29.790Z,1017.47
2023-02-04T04:58:29.770Z,1017.49
2023-02-04T04:59:29.750Z,1017.54
2023-02-04T05:00:30.239Z,1017.50
2023-02-04T05:01:29.754Z,1017.50
2023-02-04T05:02:29.712Z,1017.48
2023-02-04T05:03:29.708Z,1017.47
2023-02-04T05:04:29.835Z,1017.46
2023-02-04T05:05:29.702Z,1017.47
2023-02-04T05:06:29.671Z,1017.47
2023-02-04T05:07:29.634Z,1017.44
2023-02-04T05:08:29.697Z,1017.47
2023-02-04T05:09:29.676Z,1017.50
2023-02-04T05:10:30.024Z,1017.49
2023-02-04T05:11:29.605Z,1017.51
2023-02-04T05:12:29.586Z,1017.52
2023-02-04T05:13:29.636Z,1017.48
2023-02-04T05:14:29.557Z,1017.50
2023-02-04T05:15:29.545Z,1017.55
2023-02-04T05:16:29.615Z,1017.53
2023-02-04T05:17:29.537Z,1017.57
2023-02-04T05:18:29.531Z,1017.52
2023-02-04T05:19:29.487Z,1017.56
2023-02-04T05:20:29.794Z,1017.58
2023-02-04T05:21:29.475Z,1017.64
2023-02-04T05:22:29.457Z,1017.68
2023-02-04T05:23:29.475Z,1017.71
2023-02-04T05:24:29.418Z,1017.78
2023-02-04T05:25:29.417Z,1017.77
2023-02-04T05:26:31.188Z,1017.75
2023-02-04T05:27:29.376Z,1017.76
2023-02-04T05:28:29.398Z,1017.74
2023-02-04T05:29:29.398Z,1017.73
2023-02-04T05:30:29.590Z,1017.74
2023-02-04T05:31:29.352Z,1017.77
2023-02-04T05:32:29.327Z,1017.79
2023-02-04T05:33:29.329Z,1017.77
2023-02-04T05:34:29.298Z,1017.82
2023-02-04T05:35:29.291Z,1017.79
2023-02-04T05:36:29.279Z,1017.82
2023-02-04T05:37:29.266Z,1017.89
2023-02-04T05:38:29.284Z,1017.88
2023-02-04T05:39:29.318Z,1017.87
2023-02-04T05:40:29.465Z,1017.88
2023-02-04T05:41:29.214Z,1017.89
2023-02-04T05:42:29.165Z,1017.91
2023-02-04T05:43:29.205Z,1017.90
2023-02-04T05:44:29.184Z,1017.91
2023-02-04T05:45:36.344Z,1017.95
2023-02-04T05:46:29.125Z,1017.97
2023-02-04T05:47:29.124Z,1017.95
2023-02-04T05:48:29.104Z,1018.00
2023-02-04T05:49:29.118Z,1017.98
2023-02-04T05:50:29.138Z,1018.04
2023-02-04T05:51:29.073Z,1018.09
2023-02-04T05:52:29.045Z,1018.05
2023-02-04T05:53:29.047Z,1018.05
2023-02-04T05:54:29.043Z,1018.08
2023-02-04T05:55:29.026Z,1018.13
2023-02-04T05:56:28.997Z,1018.15
2023-02-04T05:57:28.993Z,1018.17
2023-02-04T05:58:28.974Z,1018.18
2023-02-04T05:59:28.974Z,1018.16
2023-02-04T06:00:28.985Z,1018.14
2023-02-04T06:01:28.935Z,1018.15
2023-02-04T06:02:28.924Z,1018.15
2023-02-04T06:03:28.947Z,1018.16
2023-02-04T06:04:28.978Z,1018.18
2023-02-04T06:05:28.894Z,1018.22
2023-02-04T06:06:28.862Z,1018.18
2023-02-04T06:07:28.866Z,1018.16
2023-02-04T06:08:28.836Z,1018.19
2023-02-04T06:09:28.854Z,1018.22
2023-02-04T06:10:29.157Z,1018.20
2023-02-04T06:11:28.812Z,1018.21
2023-02-04T06:12:28.782Z,1018.20
2023-02-04T06:13:28.786Z,1018.23
2023-02-04T06:14:28.772Z,1018.23
2023-02-04T06:15:28.763Z,1018.25
2023-02-04T06:16:28.769Z,1018.25
2023-02-04T06:17:28.736Z,1018.28
2023-02-04T06:18:28.722Z,1018.28
2023-02-04T06:19:28.712Z,1018.32
2023-02-04T06:20:28.684Z,1018.36
2023-02-04T06:21:28.681Z,1018.31
2023-02-04T06:22:28.663Z,1018.33
2023-02-04T06:23:28.643Z,1018.31
2023-02-04T06:24:28.618Z,1018.32
2023-02-04T06:25:28.608Z,1018.34
2023-02-04T06:26:28.600Z,1018.35
2023-02-04T06:27:28.589Z,1018.35
2023-02-04T06:28:28.567Z,1018.40
2023-02-04T06:29:28.580Z,1018.45
2023-02-04T06:30:28.701Z,1018.48
2023-02-04T06:31:28.752Z,1018.47
2023-02-04T06:32:28.519Z,1018.49
2023-02-04T06:33:28.514Z,1018.48
2023-02-04T06:34:28.518Z,1018.45
2023-02-04T06:35:28.484Z,1018.45
2023-02-04T06:36:28.470Z,1018.44
2023-02-04T06:37:28.459Z,1018.43
2023-02-04T06:38:28.454Z,1018.44
2023-02-04T06:39:28.453Z,1018.46
2023-02-04T06:40:28.424Z,1018.49
2023-02-04T06:41:28.432Z,1018.49
2023-02-04T06:42:28.408Z,1018.53
2023-02-04T06:43:28.383Z,1018.55
2023-02-04T06:44:28.386Z,1018.55
2023-02-04T06:45:28.364Z,1018.53
2023-02-04T06:46:28.398Z,1018.57
2023-02-04T06:47:28.332Z,1018.57
2023-02-04T06:48:30.146Z,1018.60
2023-02-04T06:49:28.340Z,1018.66
2023-02-04T06:50:28.294Z,1018.65
2023-02-04T06:51:28.301Z,1018.69
2023-02-04T06:52:28.269Z,1018.68
2023-02-04T06:53:28.285Z,1018.71
2023-02-04T06:54:28.254Z,1018.67
2023-02-04T06:55:28.223Z,1018.71
2023-02-04T06:56:28.212Z,1018.76
2023-02-04T06:57:28.211Z,1018.74
2023-02-04T06:58:28.182Z,1018.75
2023-02-04T06:59:28.209Z,1018.73
2023-02-04T07:00:28.164Z,1018.74
2023-02-04T07:01:28.195Z,1018.76
2023-02-04T07:02:28.190Z,1018.74
2023-02-04T07:03:28.128Z,1018.80
2023-02-04T07:04:28.113Z,1018.80
2023-02-04T07:05:28.116Z,1018.82
2023-02-04T07:06:28.102Z,1018.85
2023-02-04T07:07:28.079Z,1018.84
2023-02-04T07:08:28.065Z,1018.88
2023-02-04T07:09:28.053Z,1018.88
2023-02-04T07:10:28.044Z,1018.92
2023-02-04T07:11:28.024Z,1018.95
2023-02-04T07:12:28.004Z,1018.91
2023-02-04T07:13:28.003Z,1018.94
2023-02-04T07:14:27.995Z,1018.95
2023-02-04T07:15:28.052Z,1018.96
2023-02-04T07:16:27.954Z,1019.00
2023-02-04T07:17:27.955Z,1019.01
2023-02-04T07:18:27.931Z,1018.96
2023-02-04T07:19:27.929Z,1018.97
2023-02-04T07:20:27.941Z,1018.99
2023-02-04T07:21:27.901Z,1019.03
2023-02-04T07:22:27.874Z,1018.98
2023-02-04T07:23:27.879Z,1019.02
2023-02-04T07:24:27.867Z,1019.02
2023-02-04T07:25:27.853Z,1018.99
2023-02-04T07:26:27.823Z,1018.99
2023-02-04T07:27:27.837Z,1018.98
2023-02-04T07:28:27.809Z,1018.95
2023-02-04T07:29:27.783Z,1018.99
2023-02-04T07:30:27.802Z,1019.05
2023-02-04T07:31:27.917Z,1019.08
2023-02-04T07:32:27.759Z,1019.10
2023-02-04T07:33:27.733Z,1019.16
2023-02-04T07:34:27.742Z,1019.21
2023-02-04T07:35:27.734Z,1019.23
2023-02-04T07:36:27.722Z,1019.24
2023-02-04T07:37:27.686Z,1019.22
2023-02-04T07:38:27.682Z,1019.23
2023-02-04T07:39:27.663Z,1019.22
2023-02-04T07:40:27.666Z,1019.25
2023-02-04T07:41:27.635Z,1019.23
2023-02-04T07:42:27.631Z,1019.21
2023-02-04T07:43:27.612Z,1019.23
2023-02-04T07:44:27.605Z,1019.24
2023-02-04T07:45:27.594Z,1019.27
2023-02-04T07:46:27.618Z,1019.28
2023-02-04T07:47:27.558Z,1019.31
2023-02-04T07:48:27.549Z,1019.29
2023-02-04T07:49:27.519Z,1019.26
2023-02-04T07:50:27.516Z,1019.28
2023-02-04T07:51:28.043Z,1019.26
2023-02-04T07:52:27.505Z,1019.34
2023-02-04T07:53:27.465Z,1019.33
2023-02-04T07:54:27.480Z,1019.34
2023-02-04T07:55:27.452Z,1019.35
2023-02-04T07:56:27.427Z,1019.37
2023-02-04T07:57:27.411Z,1019.43
2023-02-04T07:58:27.406Z,1019.38
2023-02-04T07:59:27.387Z,1019.41
2023-02-04T08:00:27.414Z,1019.41
2023-02-04T08:01:27.400Z,1019.42
2023-02-04T08:02:27.424Z,1019.45
2023-02-04T08:03:27.329Z,1019.49
2023-02-04T08:04:27.329Z,1019.49
2023-02-04T08:05:27.309Z,1019.49
2023-02-04T08:06:27.316Z,1019.47
2023-02-04T08:07:27.269Z,1019.45
2023-02-04T08:08:27.276Z,1019.43
2023-02-04T08:09:27.260Z,1019.47
2023-02-04T08:10:27.226Z,1019.42
2023-02-04T08:11:27.253Z,1019.47
2023-02-04T08:12:27.231Z,1019.45
2023-02-04T08:13:27.240Z,1019.43
2023-02-04T08:14:27.192Z,1019.42
2023-02-04T08:15:27.164Z,1019.46
2023-02-04T08:16:27.291Z,1019.42
2023-02-04T08:17:27.150Z,1019.47
2023-02-04T08:18:27.146Z,1019.46
2023-02-04T08:19:27.125Z,1019.46
2023-02-04T08:20:27.186Z,1019.47
2023-02-04T08:21:27.108Z,1019.50
2023-02-04T08:22:27.085Z,1019.52
2023-02-04T08:23:27.076Z,1019.56
2023-02-04T08:24:27.055Z,1019.53
2023-02-04T08:25:27.053Z,1019.51
2023-02-04T08:26:27.057Z,1019.54
2023-02-04T08:27:27.013Z,1019.54
2023-02-04T08:28:27.013Z,1019.54
2023-02-04T08:29:27.011Z,1019.57
2023-02-04T08:30:26.977Z,1019.57
2023-02-04T08:31:27.048Z,1019.57
2023-02-04T08:32:26.941Z,1019.54
2023-02-04T08:33:26.934Z,1019.53
2023-02-04T08:34:26.922Z,1019.54
2023-02-04T08:35:26.902Z,1019.54
2023-02-04T08:36:26.932Z,1019.53
2023-02-04T08:37:26.882Z,1019.56
2023-02-04T08:38:26.889Z,1019.57
2023-02-04T08:39:26.883Z,1019.61
2023-02-04T08:40:27.062Z,1019.64
2023-02-04T08:41:26.854Z,1019.63
2023-02-04T08:42:26.833Z,1019.67
2023-02-04T08:43:26.805Z,1019.68
2023-02-04T08:44:27.076Z,1019.75
2023-02-04T08:45:26.879Z,1019.75
2023-02-04T08:46:26.852Z,1019.75
2023-02-04T08:47:26.771Z,1019.71
2023-02-04T08:48:26.795Z,1019.69
2023-02-04T08:49:26.745Z,1019.69
2023-02-04T08:50:26.737Z,1019.74
2023-02-04T08:51:26.721Z,1019.78
2023-02-04T08:52:26.741Z,1019.77
2023-02-04T08:53:26.762Z,1019.73
2023-02-04T08:54:26.684Z,1019.72
2023-02-04T08:55:26.687Z,1019.73
2023-02-04T08:56:26.685Z,1019.74
2023-02-04T08:57:26.700Z,1019.77
2023-02-04T08:58:26.638Z,1019.81
2023-02-04T08:59:26.637Z,1019.79
2023-02-04T09:00:26.618Z,1019.80
2023-02-04T09:01:26.596Z,1019.79
2023-02-04T09:02:26.701Z,1019.80
2023-02-04T09:03:26.686Z,1019.83
2023-02-04T09:04:26.570Z,1019.85
2023-02-04T09:05:26.560Z,1019.85
2023-02-04T09:06:26.550Z,1019.88
2023-02-04T09:07:26.546Z,1019.85
2023-02-04T09:08:26.521Z,1019.88
2023-02-04T09:09:26.508Z,1019.87
2023-02-04T09:10:26.501Z,1019.90
2023-02-04T09:11:26.491Z,1019.95
2023-02-04T09:12:26.536Z,1019.95
2023-02-04T09:13:26.483Z,1019.92
2023-02-04T09:14:26.468Z,1019.93
2023-02-04T09:15:26.432Z,1019.94
2023-02-04T09:16:26.442Z,1019.92
2023-02-04T09:17:26.429Z,1019.92
2023-02-04T09:18:26.424Z,1019.93
2023-02-04T09:19:26.461Z,1019.95
2023-02-04T09:20:26.354Z,1019.93
2023-02-04T09:21:26.342Z,1020.00
2023-02-04T09:22:26.386Z,1019.99
2023-02-04T09:23:26.342Z,1020.02
2023-02-04T09:24:26.310Z,1020.04
2023-02-04T09:25:26.305Z,1020.00
2023-02-04T09:26:26.281Z,1020.02
2023-02-04T09:27:26.294Z,1020.03
2023-02-04T09:28:26.269Z,1020.01
2023-02-04T09:29:26.244Z,1020.09
2023-02-04T09:30:26.239Z,1020.09
2023-02-04T09:31:26.329Z,1020.12
2023-02-04T09:32:26.222Z,1020.12
2023-02-04T09:33:26.191Z,1020.11
2023-02-04T09:34:26.195Z,1020.11
2023-02-04T09:35:26.165Z,1020.17
2023-02-04T09:36:26.160Z,1020.19
2023-02-04T09:37:26.162Z,1020.22
2023-02-04T09:38:26.132Z,1020.22
2023-02-04T09:39:26.119Z,1020.21
2023-02-04T09:40:26.103Z,1020.22
2023-02-04T09:41:26.083Z,1020.24
2023-02-04T09:42:26.084Z,1020.24
2023-02-04T09:43:26.071Z,1020.23
2023-02-04T09:44:26.063Z,1020.25
2023-02-04T09:45:26.050Z,1020.25
2023-02-04T09:46:26.045Z,1020.29
2023-02-04T09:47:26.026Z,1020.29
2023-02-04T09:48:26.026Z,1020.34
2023-02-04T09:49:25.985Z,1020.35
2023-02-04T09:50:25.977Z,1020.37
2023-02-04T09:51:25.957Z,1020.38
2023-02-04T09:52:25.954Z,1020.39
2023-02-04T09:53:25.947Z,1020.41
2023-02-04T09:54:25.921Z,1020.41
2023-02-04T09:55:25.897Z,1020.40
2023-02-04T09:56:25.901Z,1020.40
2023-02-04T09:57:25.863Z,1020.41
2023-02-04T09:58:25.873Z,1020.40
2023-02-04T09:59:25.837Z,1020.42
2023-02-04T10:00:25.842Z,1020.43
2023-02-04T10:01:25.943Z,1020.38
2023-02-04T10:02:25.799Z,1020.40
2023-02-04T10:03:25.823Z,1020.35
2023-02-04T10:04:25.766Z,1020.39
2023-02-04T10:05:25.755Z,1020.46
2023-02-04T10:06:25.736Z,1020.46
2023-02-04T10:07:25.733Z,1020.47
2023-02-04T10:08:25.738Z,1020.48
2023-02-04T10:09:25.704Z,1020.49
2023-02-04T10:10:25.683Z,1020.49
2023-02-04T10:11:25.705Z,1020.48
2023-02-04T10:12:25.670Z,1020.46
2023-02-04T10:13:25.661Z,1020.46
2023-02-04T10:14:25.642Z,1020.46
2023-02-04T10:15:25.615Z,1020.45
2023-02-04T10:16:25.662Z,1020.47
2023-02-04T10:17:25.589Z,1020.47
2023-02-04T10:18:25.625Z,1020.53
2023-02-04T10:19:25.559Z,1020.52
2023-02-04T10:20:25.538Z,1020.53
2023-02-04T10:21:25.553Z,1020.54
2023-02-04T10:22:25.510Z,1020.58
2023-02-04T10:23:25.539Z,1020.59
2023-02-04T10:24:25.510Z,1020.59
2023-02-04T10:25:25.465Z,1020.52
2023-02-04T10:26:25.471Z,1020.54
2023-02-04T10:27:25.448Z,1020.50
2023-02-04T10:28:25.459Z,1020.55
2023-02-04T10:29:25.452Z,1020.56
2023-02-04T10:30:25.530Z,1020.52
2023-02-04T10:31:25.623Z,1020.59
2023-02-04T10:32:25.392Z,1020.59
2023-02-04T10:33:25.373Z,1020.59
2023-02-04T10:34:25.395Z,1020.54
2023-02-04T10:35:25.423Z,1020.52
2023-02-04T10:36:25.347Z,1020.51
2023-02-04T10:37:25.325Z,1020.51
2023-02-04T10:38:25.344Z,1020.48
2023-02-04T10:39:25.316Z,1020.50
2023-02-04T10:40:25.280Z,1020.52
2023-02-04T10:41:25.275Z,1020.53
2023-02-04T10:42:25.273Z,1020.53
2023-02-04T10:43:25.244Z,1020.55
2023-02-04T10:44:25.265Z,1020.53
2023-02-04T10:45:25.236Z,1020.52
2023-02-04T10:46:25.303Z,1020.53
2023-02-04T10:47:25.202Z,1020.52
2023-02-04T10:48:25.199Z,1020.51
2023-02-04T10:49:25.560Z,1020.49
2023-02-04T10:50:25.180Z,1020.51
2023-02-04T10:51:25.518Z,1020.52
2023-02-04T10:52:25.302Z,1020.54
2023-02-04T10:53:25.806Z,1020.56
2023-02-04T10:54:25.116Z,1020.57
2023-02-04T10:55:25.122Z,1020.59
2023-02-04T10:56:25.076Z,1020.58
2023-02-04T10:57:25.070Z,1020.56
2023-02-04T10:58:25.103Z,1020.54
2023-02-04T10:59:25.030Z,1020.54
2023-02-04T11:00:25.047Z,1020.52
2023-02-04T11:01:25.033Z,1020.52
2023-02-04T11:02:25.005Z,1020.51
2023-02-04T11:03:25.113Z,1020.49
2023-02-04T11:04:24.981Z,1020.52
2023-02-04T11:05:24.984Z,1020.50
2023-02-04T11:06:24.951Z,1020.54
2023-02-04T11:07:24.947Z,1020.50
2023-02-04T11:08:24.930Z,1020.50
2023-02-04T11:09:24.910Z,1020.56
2023-02-04T11:10:24.924Z,1020.51
2023-02-04T11:11:24.911Z,1020.50
2023-02-04T11:12:24.877Z,1020.54
2023-02-04T11:13:24.856Z,1020.53
2023-02-04T11:14:24.854Z,1020.55
2023-02-04T11:15:24.905Z,1020.56
2023-02-04T11:16:24.932Z,1020.58
2023-02-04T11:17:24.801Z,1020.54
2023-02-04T11:18:24.781Z,1020.61
2023-02-04T11:19:25.367Z,1020.63
2023-02-04T11:20:24.788Z,1020.60
2023-02-04T11:21:24.748Z,1020.63
2023-02-04T11:22:24.747Z,1020.60
2023-02-04T11:23:24.730Z,1020.57
2023-02-04T11:24:24.713Z,1020.58
2023-02-04T11:25:24.720Z,1020.61
2023-02-04T11:26:24.685Z,1020.61
2023-02-04T11:27:24.676Z,1020.58
2023-02-04T11:28:24.679Z,1020.58
2023-02-04T11:29:24.648Z,1020.55
2023-02-04T11:30:24.630Z,1020.57
2023-02-04T11:31:24.759Z,1020.52
2023-02-04T11:32:24.635Z,1020.57
2023-02-04T11:33:24.605Z,1020.57
2023-02-04T11:34:24.579Z,1020.61
2023-02-04T11:35:24.544Z,1020.60
2023-02-04T11:36:24.567Z,1020.57
2023-02-04T11:37:24.545Z,1020.57
2023-02-04T11:38:24.532Z,1020.56
2023-02-04T11:39:24.521Z,1020.52
2023-02-04T11:40:24.521Z,1020.53
2023-02-04T11:41:24.505Z,1020.50
2023-02-04T11:42:24.478Z,1020.47
2023-02-04T11:43:24.481Z,1020.45
2023-02-04T11:44:24.436Z,1020.48
2023-02-04T11:45:24.424Z,1020.48
2023-02-04T11:46:24.483Z,1020.42
2023-02-04T11:47:24.404Z,1020.49
2023-02-04T11:48:24.439Z,1020.50
2023-02-04T11:49:24.394Z,1020.50
2023-02-04T11:50:24.375Z,1020.47
2023-02-04T11:51:24.354Z,1020.49
2023-02-04T11:52:24.363Z,1020.47
2023-02-04T11:53:24.349Z,1020.48
2023-02-04T11:54:24.334Z,1020.49
2023-02-04T11:55:24.324Z,1020.51
2023-02-04T11:56:24.295Z,1020.47
2023-02-04T11:57:24.285Z,1020.46
2023-02-04T11:58:24.253Z,1020.48
2023-02-04T11:59:24.236Z,1020.47
2023-02-04T12:00:24.216Z,1020.47
2023-02-04T12:01:24.249Z,1020.50
2023-02-04T12:02:24.295Z,1020.50
2023-02-04T12:03:24.244Z,1020.48
2023-02-04T12:04:24.180Z,1020.51
2023-02-04T12:05:24.208Z,1020.52